sensor_id;sensor_type;location;lat;lon;timestamp;pressure;altitude;pressure_sealevel;temperature
71463;BMP180;59266;52.608;13.260;2023-06-10T00:02:14;101289.00;;;15.40
71463;BMP180;59266;52.608;13.260;2023-06-10T00:04:41;101290.00;;;15.20
71463;BMP180;59266;52.608;13.260;2023-06-10T00:07:08;101291.00;;;15.20
71463;BMP180;59266;52.608;13.260;2023-06-10T00:09:37;101301.00;;;15.40
71463;BMP180;59266;52.608;13.260;2023-06-10T00:12:08;101289.00;;;15.30
71463;BMP180;59266;52.608;13.260;2023-06-10T00:14:37;101289.00;;;15.30
71463;BMP180;59266;52.608;13.260;2023-06-10T00:17:05;101289.00;;;15.10
71463;BMP180;59266;52.608;13.260;2023-06-10T00:19:38;101289.00;;;15.10
71463;BMP180;59266;52.608;13.260;2023-06-10T00:22:08;101305.00;;;15.10
71463;BMP180;59266;52.608;13.260;2023-06-10T00:24:37;101286.00;;;15.10
71463;BMP180;59266;52.608;13.260;2023-06-10T00:27:04;101300.00;;;15.10
71463;BMP180;59266;52.608;13.260;2023-06-10T00:29:34;101299.00;;;15.10
71463;BMP180;59266;52.608;13.260;2023-06-10T00:32:02;101297.00;;;14.90
71463;BMP180;59266;52.608;13.260;2023-06-10T00:34:29;101293.00;;;14.80
71463;BMP180;59266;52.608;13.260;2023-06-10T00:36:57;101299.00;;;14.90
71463;BMP180;59266;52.608;13.260;2023-06-10T00:39:26;101288.00;;;14.90
71463;BMP180;59266;52.608;13.260;2023-06-10T00:41:52;101281.00;;;14.60
71463;BMP180;59266;52.608;13.260;2023-06-10T00:44:19;101285.00;;;14.80
71463;BMP180;59266;52.608;13.260;2023-06-10T00:46:46;101285.00;;;14.70
71463;BMP180;59266;52.608;13.260;2023-06-10T00:49:13;101268.00;;;14.80
71463;BMP180;59266;52.608;13.260;2023-06-10T00:51:40;101271.00;;;14.70
71463;BMP180;59266;52.608;13.260;2023-06-10T00:54:07;101281.00;;;14.70
71463;BMP180;59266;52.608;13.260;2023-06-10T00:56:35;101273.00;;;14.50
71463;BMP180;59266;52.608;13.260;2023-06-10T00:59:02;101274.00;;;14.60
71463;BMP180;59266;52.608;13.260;2023-06-10T01:01:29;101283.00;;;14.40
71463;BMP180;59266;52.608;13.260;2023-06-10T01:03:56;101278.00;;;14.50
71463;BMP180;59266;52.608;13.260;2023-06-10T01:06:34;101287.00;;;14.60
71463;BMP180;59266;52.608;13.260;2023-06-10T01:09:32;101284.00;;;14.60
71463;BMP180;59266;52.608;13.260;2023-06-10T01:12:31;101288.00;;;14.50
71463;BMP180;59266;52.608;13.260;2023-06-10T01:15:00;101283.00;;;14.30
71463;BMP180;59266;52.608;13.260;2023-06-10T01:17:28;101283.00;;;14.30
71463;BMP180;59266;52.608;13.260;2023-06-10T01:19:58;101290.00;;;14.30
71463;BMP180;59266;52.608;13.260;2023-06-10T01:22:38;101293.00;;;14.30
71463;BMP180;59266;52.608;13.260;2023-06-10T01:25:05;101294.00;;;14.30
71463;BMP180;59266;52.608;13.260;2023-06-10T01:27:36;101295.00;;;14.40
71463;BMP180;59266;52.608;13.260;2023-06-10T01:30:14;101288.00;;;14.40
71463;BMP180;59266;52.608;13.260;2023-06-10T01:32:50;101286.00;;;14.40
71463;BMP180;59266;52.608;13.260;2023-06-10T01:35:20;101284.00;;;14.40
71463;BMP180;59266;52.608;13.260;2023-06-10T01:37:49;101289.00;;;14.40
71463;BMP180;59266;52.608;13.260;2023-06-10T01:40:18;101294.00;;;14.40
71463;BMP180;59266;52.608;13.260;2023-06-10T01:42:45;101296.00;;;14.30
71463;BMP180;59266;52.608;13.260;2023-06-10T01:45:11;101293.00;;;14.30
71463;BMP180;59266;52.608;13.260;2023-06-10T01:47:38;101297.00;;;14.40
71463;BMP180;59266;52.608;13.260;2023-06-10T01:50:05;101301.00;;;14.30
71463;BMP180;59266;52.608;13.260;2023-06-10T01:52:34;101295.00;;;14.20
71463;BMP180;59266;52.608;13.260;2023-06-10T01:55:01;101301.00;;;14.30
71463;BMP180;59266;52.608;13.260;2023-06-10T01:57:29;101307.00;;;14.30
71463;BMP180;59266;52.608;13.260;2023-06-10T01:59:55;101302.00;;;14.20
71463;BMP180;59266;52.608;13.260;2023-06-10T02:02:22;101297.00;;;14.10
71463;BMP180;59266;52.608;13.260;2023-06-10T02:04:49;101302.00;;;14.00
71463;BMP180;59266;52.608;13.260;2023-06-10T02:07:16;101295.00;;;13.90
71463;BMP180;59266;52.608;13.260;2023-06-10T02:09:42;101290.00;;;14.00
71463;BMP180;59266;52.608;13.260;2023-06-10T02:12:09;101294.00;;;13.80
71463;BMP180;59266;52.608;13.260;2023-06-10T02:14:36;101291.00;;;13.90
71463;BMP180;59266;52.608;13.260;2023-06-10T02:17:03;101295.00;;;13.90
71463;BMP180;59266;52.608;13.260;2023-06-10T02:19:31;101298.00;;;13.80
71463;BMP180;59266;52.608;13.260;2023-06-10T02:21:57;101307.00;;;14.00
71463;BMP180;59266;52.608;13.260;2023-06-10T02:24:24;101295.00;;;14.00
71463;BMP180;59266;52.608;13.260;2023-06-10T02:26:51;101298.00;;;14.00
71463;BMP180;59266;52.608;13.260;2023-06-10T02:29:18;101298.00;;;14.00
71463;BMP180;59266;52.608;13.260;2023-06-10T02:31:46;101302.00;;;13.90
71463;BMP180;59266;52.608;13.260;2023-06-10T02:34:13;101304.00;;;13.90
71463;BMP180;59266;52.608;13.260;2023-06-10T02:36:40;101301.00;;;13.90
71463;BMP180;59266;52.608;13.260;2023-06-10T02:39:07;101305.00;;;13.90
71463;BMP180;59266;52.608;13.260;2023-06-10T02:41:34;101305.00;;;13.90
71463;BMP180;59266;52.608;13.260;2023-06-10T02:44:01;101305.00;;;13.80
71463;BMP180;59266;52.608;13.260;2023-06-10T02:46:27;101299.00;;;14.00
71463;BMP180;59266;52.608;13.260;2023-06-10T02:48:55;101308.00;;;13.80
71463;BMP180;59266;52.608;13.260;2023-06-10T02:51:21;101304.00;;;13.80
71463;BMP180;59266;52.608;13.260;2023-06-10T02:53:49;101300.00;;;13.80
71463;BMP180;59266;52.608;13.260;2023-06-10T02:56:16;101297.00;;;13.80
71463;BMP180;59266;52.608;13.260;2023-06-10T02:58:43;101292.00;;;13.80
71463;BMP180;59266;52.608;13.260;2023-06-10T03:01:09;101296.00;;;13.80
71463;BMP180;59266;52.608;13.260;2023-06-10T03:03:36;101295.00;;;13.80
71463;BMP180;59266;52.608;13.260;2023-06-10T03:06:10;101300.00;;;13.80
71463;BMP180;59266;52.608;13.260;2023-06-10T03:08:36;101299.00;;;13.90
71463;BMP180;59266;52.608;13.260;2023-06-10T03:11:04;101304.00;;;13.80
71463;BMP180;59266;52.608;13.260;2023-06-10T03:13:32;101308.00;;;13.80
71463;BMP180;59266;52.608;13.260;2023-06-10T03:16:02;101298.00;;;13.70
71463;BMP180;59266;52.608;13.260;2023-06-10T03:18:31;101305.00;;;13.80
71463;BMP180;59266;52.608;13.260;2023-06-10T03:20:58;101299.00;;;13.80
71463;BMP180;59266;52.608;13.260;2023-06-10T03:23:25;101303.00;;;13.90
71463;BMP180;59266;52.608;13.260;2023-06-10T03:25:53;101303.00;;;13.90
71463;BMP180;59266;52.608;13.260;2023-06-10T03:28:21;101297.00;;;13.90
71463;BMP180;59266;52.608;13.260;2023-06-10T03:30:48;101312.00;;;14.00
71463;BMP180;59266;52.608;13.260;2023-06-10T03:33:15;101306.00;;;13.90
71463;BMP180;59266;52.608;13.260;2023-06-10T03:35:42;101314.00;;;14.10
71463;BMP180;59266;52.608;13.260;2023-06-10T03:38:09;101301.00;;;14.20
71463;BMP180;59266;52.608;13.260;2023-06-10T03:40:36;101314.00;;;14.20
71463;BMP180;59266;52.608;13.260;2023-06-10T03:43:02;101314.00;;;14.10
71463;BMP180;59266;52.608;13.260;2023-06-10T03:45:29;101314.00;;;14.20
71463;BMP180;59266;52.608;13.260;2023-06-10T03:47:56;101321.00;;;14.20
71463;BMP180;59266;52.608;13.260;2023-06-10T03:50:23;101318.00;;;14.30
71463;BMP180;59266;52.608;13.260;2023-06-10T03:52:51;101317.00;;;14.30
71463;BMP180;59266;52.608;13.260;2023-06-10T03:55:18;101316.00;;;14.30
71463;BMP180;59266;52.608;13.260;2023-06-10T03:57:44;101316.00;;;14.30
71463;BMP180;59266;52.608;13.260;2023-06-10T04:00:11;101313.00;;;14.20
71463;BMP180;59266;52.608;13.260;2023-06-10T04:02:38;101315.00;;;14.40
71463;BMP180;59266;52.608;13.260;2023-06-10T04:05:14;101315.00;;;14.40
71463;BMP180;59266;52.608;13.260;2023-06-10T04:07:40;101312.00;;;14.40
71463;BMP180;59266;52.608;13.260;2023-06-10T04:10:09;101318.00;;;14.50
71463;BMP180;59266;52.608;13.260;2023-06-10T04:12:36;101321.00;;;14.60
71463;BMP180;59266;52.608;13.260;2023-06-10T04:15:04;101324.00;;;14.70
71463;BMP180;59266;52.608;13.260;2023-06-10T04:17:31;101322.00;;;14.80
71463;BMP180;59266;52.608;13.260;2023-06-10T04:19:57;101318.00;;;14.70
71463;BMP180;59266;52.608;13.260;2023-06-10T04:22:24;101319.00;;;14.80
71463;BMP180;59266;52.608;13.260;2023-06-10T04:24:51;101313.00;;;14.80
71463;BMP180;59266;52.608;13.260;2023-06-10T04:27:18;101316.00;;;14.80
71463;BMP180;59266;52.608;13.260;2023-06-10T04:29:45;101315.00;;;14.90
71463;BMP180;59266;52.608;13.260;2023-06-10T04:32:12;101319.00;;;15.00
71463;BMP180;59266;52.608;13.260;2023-06-10T04:34:38;101320.00;;;15.10
71463;BMP180;59266;52.608;13.260;2023-06-10T04:37:05;101325.00;;;15.20
71463;BMP180;59266;52.608;13.260;2023-06-10T04:39:33;101318.00;;;15.20
71463;BMP180;59266;52.608;13.260;2023-06-10T04:42:03;101322.00;;;15.30
71463;BMP180;59266;52.608;13.260;2023-06-10T04:44:31;101322.00;;;15.50
71463;BMP180;59266;52.608;13.260;2023-06-10T04:46:58;101321.00;;;15.50
71463;BMP180;59266;52.608;13.260;2023-06-10T04:49:25;101323.00;;;15.70
71463;BMP180;59266;52.608;13.260;2023-06-10T04:51:52;101319.00;;;15.70
71463;BMP180;59266;52.608;13.260;2023-06-10T04:54:18;101328.00;;;15.70
71463;BMP180;59266;52.608;13.260;2023-06-10T04:56:45;101332.00;;;15.80
71463;BMP180;59266;52.608;13.260;2023-06-10T04:59:13;101329.00;;;16.00
71463;BMP180;59266;52.608;13.260;2023-06-10T05:01:41;101332.00;;;16.10
71463;BMP180;59266;52.608;13.260;2023-06-10T05:04:08;101335.00;;;16.30
71463;BMP180;59266;52.608;13.260;2023-06-10T05:06:36;101344.00;;;16.30
71463;BMP180;59266;52.608;13.260;2023-06-10T05:09:03;101342.00;;;16.50
71463;BMP180;59266;52.608;13.260;2023-06-10T05:11:32;101345.00;;;16.50
71463;BMP180;59266;52.608;13.260;2023-06-10T05:13:59;101348.00;;;16.50
71463;BMP180;59266;52.608;13.260;2023-06-10T05:16:25;101341.00;;;16.70
71463;BMP180;59266;52.608;13.260;2023-06-10T05:18:52;101346.00;;;16.80
71463;BMP180;59266;52.608;13.260;2023-06-10T05:21:20;101345.00;;;16.90
71463;BMP180;59266;52.608;13.260;2023-06-10T05:23:47;101356.00;;;16.80
71463;BMP180;59266;52.608;13.260;2023-06-10T05:26:14;101358.00;;;17.10
71463;BMP180;59266;52.608;13.260;2023-06-10T05:28:40;101352.00;;;17.20
71463;BMP180;59266;52.608;13.260;2023-06-10T05:31:07;101356.00;;;17.20
71463;BMP180;59266;52.608;13.260;2023-06-10T05:33:34;101359.00;;;17.30
71463;BMP180;59266;52.608;13.260;2023-06-10T05:36:01;101360.00;;;17.50
71463;BMP180;59266;52.608;13.260;2023-06-10T05:38:31;101355.00;;;17.70
71463;BMP180;59266;52.608;13.260;2023-06-10T05:40:59;101348.00;;;17.80
71463;BMP180;59266;52.608;13.260;2023-06-10T05:43:26;101347.00;;;18.00
71463;BMP180;59266;52.608;13.260;2023-06-10T05:45:52;101346.00;;;18.10
71463;BMP180;59266;52.608;13.260;2023-06-10T05:48:19;101347.00;;;18.30
71463;BMP180;59266;52.608;13.260;2023-06-10T05:50:46;101343.00;;;18.60
71463;BMP180;59266;52.608;13.260;2023-06-10T05:53:15;101334.00;;;19.30
71463;BMP180;59266;52.608;13.260;2023-06-10T05:55:43;101352.00;;;21.20
71463;BMP180;59266;52.608;13.260;2023-06-10T05:58:13;101355.00;;;21.50
71463;BMP180;59266;52.608;13.260;2023-06-10T06:00:40;101350.00;;;21.30
71463;BMP180;59266;52.608;13.260;2023-06-10T06:03:09;101356.00;;;21.30
71463;BMP180;59266;52.608;13.260;2023-06-10T06:05:37;101361.00;;;20.60
71463;BMP180;59266;52.608;13.260;2023-06-10T06:08:07;101350.00;;;20.90
71463;BMP180;59266;52.608;13.260;2023-06-10T06:10:36;101349.00;;;22.00
71463;BMP180;59266;52.608;13.260;2023-06-10T06:13:04;101347.00;;;22.50
71463;BMP180;59266;52.608;13.260;2023-06-10T06:15:34;101346.00;;;25.30
71463;BMP180;59266;52.608;13.260;2023-06-10T06:18:01;101343.00;;;25.90
71463;BMP180;59266;52.608;13.260;2023-06-10T06:20:27;101363.00;;;26.50
71463;BMP180;59266;52.608;13.260;2023-06-10T06:22:54;101371.00;;;25.90
71463;BMP180;59266;52.608;13.260;2023-06-10T06:25:21;101358.00;;;25.50
71463;BMP180;59266;52.608;13.260;2023-06-10T06:27:49;101373.00;;;25.80
71463;BMP180;59266;52.608;13.260;2023-06-10T06:30:16;101352.00;;;25.00
71463;BMP180;59266;52.608;13.260;2023-06-10T06:32:43;101379.00;;;25.20
71463;BMP180;59266;52.608;13.260;2023-06-10T06:35:10;101379.00;;;24.70
71463;BMP180;59266;52.608;13.260;2023-06-10T06:37:37;101375.00;;;24.40
71463;BMP180;59266;52.608;13.260;2023-06-10T06:40:04;101382.00;;;24.10
71463;BMP180;59266;52.608;13.260;2023-06-10T06:42:31;101391.00;;;24.60
71463;BMP180;59266;52.608;13.260;2023-06-10T06:45:02;101390.00;;;24.30
71463;BMP180;59266;52.608;13.260;2023-06-10T06:47:28;101394.00;;;24.20
71463;BMP180;59266;52.608;13.260;2023-06-10T06:49:57;101393.00;;;24.30
71463;BMP180;59266;52.608;13.260;2023-06-10T06:52:24;101385.00;;;24.00
71463;BMP180;59266;52.608;13.260;2023-06-10T06:54:50;101377.00;;;26.50
71463;BMP180;59266;52.608;13.260;2023-06-10T06:57:17;101397.00;;;26.70
71463;BMP180;59266;52.608;13.260;2023-06-10T06:59:44;101371.00;;;26.90
71463;BMP180;59266;52.608;13.260;2023-06-10T07:02:13;101395.00;;;25.60
71463;BMP180;59266;52.608;13.260;2023-06-10T07:04:40;101385.00;;;26.30
71463;BMP180;59266;52.608;13.260;2023-06-10T07:07:08;101399.00;;;27.50
71463;BMP180;59266;52.608;13.260;2023-06-10T07:09:38;101396.00;;;27.90
71463;BMP180;59266;52.608;13.260;2023-06-10T07:12:05;101380.00;;;28.30
71463;BMP180;59266;52.608;13.260;2023-06-10T07:14:32;101409.00;;;28.20
71463;BMP180;59266;52.608;13.260;2023-06-10T07:17:07;101396.00;;;28.70
71463;BMP180;59266;52.608;13.260;2023-06-10T07:19:39;101411.00;;;27.80
71463;BMP180;59266;52.608;13.260;2023-06-10T07:22:06;101408.00;;;27.30
71463;BMP180;59266;52.608;13.260;2023-06-10T07:24:33;101418.00;;;27.30
71463;BMP180;59266;52.608;13.260;2023-06-10T07:27:03;101414.00;;;26.60
71463;BMP180;59266;52.608;13.260;2023-06-10T07:29:29;101426.00;;;26.30
71463;BMP180;59266;52.608;13.260;2023-06-10T07:31:56;101413.00;;;25.40
71463;BMP180;59266;52.608;13.260;2023-06-10T07:34:23;101419.00;;;26.00
71463;BMP180;59266;52.608;13.260;2023-06-10T07:36:50;101414.00;;;26.10
71463;BMP180;59266;52.608;13.260;2023-06-10T07:39:16;101401.00;;;27.80
71463;BMP180;59266;52.608;13.260;2023-06-10T07:41:43;101424.00;;;28.70
71463;BMP180;59266;52.608;13.260;2023-06-10T07:44:14;101427.00;;;27.90
71463;BMP180;59266;52.608;13.260;2023-06-10T07:46:50;101423.00;;;28.20
71463;BMP180;59266;52.608;13.260;2023-06-10T07:49:17;101433.00;;;28.50
71463;BMP180;59266;52.608;13.260;2023-06-10T07:51:45;101427.00;;;27.50
71463;BMP180;59266;52.608;13.260;2023-06-10T07:54:16;101428.00;;;28.00
71463;BMP180;59266;52.608;13.260;2023-06-10T07:56:45;101405.00;;;29.90
71463;BMP180;59266;52.608;13.260;2023-06-10T07:59:16;101402.00;;;29.50
71463;BMP180;59266;52.608;13.260;2023-06-10T08:01:43;101402.00;;;33.10
71463;BMP180;59266;52.608;13.260;2023-06-10T08:04:09;101400.00;;;32.80
71463;BMP180;59266;52.608;13.260;2023-06-10T08:06:45;101411.00;;;33.90
71463;BMP180;59266;52.608;13.260;2023-06-10T08:09:12;101417.00;;;34.00
71463;BMP180;59266;52.608;13.260;2023-06-10T08:11:41;101416.00;;;34.00
71463;BMP180;59266;52.608;13.260;2023-06-10T08:14:09;101417.00;;;33.50
71463;BMP180;59266;52.608;13.260;2023-06-10T08:16:35;101427.00;;;34.50
71463;BMP180;59266;52.608;13.260;2023-06-10T08:19:02;101419.00;;;35.90
71463;BMP180;59266;52.608;13.260;2023-06-10T08:21:29;101434.00;;;34.80
71463;BMP180;59266;52.608;13.260;2023-06-10T08:23:55;101434.00;;;34.00
71463;BMP180;59266;52.608;13.260;2023-06-10T08:26:23;101452.00;;;34.00
71463;BMP180;59266;52.608;13.260;2023-06-10T08:28:50;101454.00;;;33.10
71463;BMP180;59266;52.608;13.260;2023-06-10T08:31:18;101461.00;;;32.40
71463;BMP180;59266;52.608;13.260;2023-06-10T08:33:46;101475.00;;;33.10
71463;BMP180;59266;52.608;13.260;2023-06-10T08:36:15;101470.00;;;32.40
71463;BMP180;59266;52.608;13.260;2023-06-10T08:38:50;101469.00;;;30.00
71463;BMP180;59266;52.608;13.260;2023-06-10T08:41:17;101469.00;;;29.10
71463;BMP180;59266;52.608;13.260;2023-06-10T08:44:05;101470.00;;;28.90
71463;BMP180;59266;52.608;13.260;2023-06-10T08:46:34;101459.00;;;28.40
71463;BMP180;59266;52.608;13.260;2023-06-10T08:49:03;101477.00;;;29.60
71463;BMP180;59266;52.608;13.260;2023-06-10T08:51:34;101479.00;;;29.50
71463;BMP180;59266;52.608;13.260;2023-06-10T08:54:04;101479.00;;;28.50
71463;BMP180;59266;52.608;13.260;2023-06-10T08:56:33;101481.00;;;27.40
71463;BMP180;59266;52.608;13.260;2023-06-10T08:59:05;101482.00;;;27.70
71463;BMP180;59266;52.608;13.260;2023-06-10T09:01:32;101480.00;;;27.40
71463;BMP180;59266;52.608;13.260;2023-06-10T09:03:59;101477.00;;;27.10
71463;BMP180;59266;52.608;13.260;2023-06-10T09:06:27;101472.00;;;27.40
71463;BMP180;59266;52.608;13.260;2023-06-10T09:09:00;101474.00;;;27.20
71463;BMP180;59266;52.608;13.260;2023-06-10T09:11:31;101482.00;;;27.10
71463;BMP180;59266;52.608;13.260;2023-06-10T09:13:59;101476.00;;;27.70
71463;BMP180;59266;52.608;13.260;2023-06-10T09:16:32;101481.00;;;27.60
71463;BMP180;59266;52.608;13.260;2023-06-10T09:18:59;101476.00;;;26.90
71463;BMP180;59266;52.608;13.260;2023-06-10T09:21:31;101480.00;;;26.40
71463;BMP180;59266;52.608;13.260;2023-06-10T09:24:00;101472.00;;;26.30
71463;BMP180;59266;52.608;13.260;2023-06-10T09:26:32;101479.00;;;26.20
71463;BMP180;59266;52.608;13.260;2023-06-10T09:29:06;101480.00;;;25.90
71463;BMP180;59266;52.608;13.260;2023-06-10T09:31:36;101477.00;;;26.00
71463;BMP180;59266;52.608;13.260;2023-06-10T09:34:06;101471.00;;;26.30
71463;BMP180;59266;52.608;13.260;2023-06-10T09:36:33;101477.00;;;26.50
71463;BMP180;59266;52.608;13.260;2023-06-10T09:39:01;101481.00;;;26.10
71463;BMP180;59266;52.608;13.260;2023-06-10T09:41:35;101477.00;;;26.00
71463;BMP180;59266;52.608;13.260;2023-06-10T09:44:11;101477.00;;;26.00
71463;BMP180;59266;52.608;13.260;2023-06-10T09:46:38;101475.00;;;25.90
71463;BMP180;59266;52.608;13.260;2023-06-10T09:49:05;101470.00;;;25.70
71463;BMP180;59266;52.608;13.260;2023-06-10T09:51:32;101471.00;;;25.80
71463;BMP180;59266;52.608;13.260;2023-06-10T09:54:02;101478.00;;;25.50
71463;BMP180;59266;52.608;13.260;2023-06-10T09:56:36;101481.00;;;25.00
71463;BMP180;59266;52.608;13.260;2023-06-10T09:59:04;101477.00;;;24.70
71463;BMP180;59266;52.608;13.260;2023-06-10T10:01:32;101475.00;;;24.60
71463;BMP180;59266;52.608;13.260;2023-06-10T10:04:01;101478.00;;;24.70
71463;BMP180;59266;52.608;13.260;2023-06-10T10:06:28;101481.00;;;24.40
71463;BMP180;59266;52.608;13.260;2023-06-10T10:08:56;101482.00;;;25.20
71463;BMP180;59266;52.608;13.260;2023-06-10T10:11:23;101482.00;;;25.20
71463;BMP180;59266;52.608;13.260;2023-06-10T10:13:52;101486.00;;;25.50
71463;BMP180;59266;52.608;13.260;2023-06-10T10:16:21;101479.00;;;25.20
71463;BMP180;59266;52.608;13.260;2023-06-10T10:18:54;101478.00;;;25.30
71463;BMP180;59266;52.608;13.260;2023-06-10T10:21:26;101484.00;;;25.30
71463;BMP180;59266;52.608;13.260;2023-06-10T10:24:05;101493.00;;;24.60
71463;BMP180;59266;52.608;13.260;2023-06-10T10:26:35;101500.00;;;23.70
71463;BMP180;59266;52.608;13.260;2023-06-10T10:29:11;101494.00;;;23.70
71463;BMP180;59266;52.608;13.260;2023-06-10T10:31:46;101490.00;;;22.90
71463;BMP180;59266;52.608;13.260;2023-06-10T10:34:21;101479.00;;;22.90
71463;BMP180;59266;52.608;13.260;2023-06-10T10:36:49;101481.00;;;23.00
71463;BMP180;59266;52.608;13.260;2023-06-10T10:39:17;101486.00;;;22.90
71463;BMP180;59266;52.608;13.260;2023-06-10T10:41:51;101480.00;;;22.80
71463;BMP180;59266;52.608;13.260;2023-06-10T10:44:18;101482.00;;;23.10
71463;BMP180;59266;52.608;13.260;2023-06-10T10:46:50;101482.00;;;23.00
71463;BMP180;59266;52.608;13.260;2023-06-10T10:49:19;101477.00;;;22.90
71463;BMP180;59266;52.608;13.260;2023-06-10T10:52:00;101474.00;;;22.90
71463;BMP180;59266;52.608;13.260;2023-06-10T10:54:34;101480.00;;;22.90
71463;BMP180;59266;52.608;13.260;2023-06-10T10:57:18;101471.00;;;22.90
71463;BMP180;59266;52.608;13.260;2023-06-10T11:04:49;101455.00;;;23.60
71463;BMP180;59266;52.608;13.260;2023-06-10T11:07:20;101457.00;;;24.10
71463;BMP180;59266;52.608;13.260;2023-06-10T11:09:59;101448.00;;;24.40
71463;BMP180;59266;52.608;13.260;2023-06-10T11:12:59;101437.00;;;24.60
71463;BMP180;59266;52.608;13.260;2023-06-10T11:15:27;101429.00;;;24.50
71463;BMP180;59266;52.608;13.260;2023-06-10T11:18:22;101424.00;;;24.60
71463;BMP180;59266;52.608;13.260;2023-06-10T11:31:20;101390.00;;;25.00
71463;BMP180;59266;52.608;13.260;2023-06-10T11:33:52;101378.00;;;25.00
71463;BMP180;59266;52.608;13.260;2023-06-10T11:36:20;101397.00;;;24.90
71463;BMP180;59266;52.608;13.260;2023-06-10T11:38:48;101407.00;;;25.10
71463;BMP180;59266;52.608;13.260;2023-06-10T11:41:15;101423.00;;;25.20
71463;BMP180;59266;52.608;13.260;2023-06-10T11:43:44;101416.00;;;24.90
71463;BMP180;59266;52.608;13.260;2023-06-10T11:46:11;101419.00;;;25.00
71463;BMP180;59266;52.608;13.260;2023-06-10T11:48:38;101409.00;;;24.40
71463;BMP180;59266;52.608;13.260;2023-06-10T11:51:07;101422.00;;;24.50
71463;BMP180;59266;52.608;13.260;2023-06-10T11:53:35;101424.00;;;24.00
71463;BMP180;59266;52.608;13.260;2023-06-10T11:56:01;101428.00;;;24.60
71463;BMP180;59266;52.608;13.260;2023-06-10T11:58:31;101425.00;;;24.60
71463;BMP180;59266;52.608;13.260;2023-06-10T12:00:57;101422.00;;;24.90
71463;BMP180;59266;52.608;13.260;2023-06-10T12:03:25;101425.00;;;25.00
71463;BMP180;59266;52.608;13.260;2023-06-10T12:05:56;101420.00;;;25.10
71463;BMP180;59266;52.608;13.260;2023-06-10T12:08:23;101415.00;;;24.60
71463;BMP180;59266;52.608;13.260;2023-06-10T12:10:50;101427.00;;;24.70
71463;BMP180;59266;52.608;13.260;2023-06-10T12:13:20;101389.00;;;25.80
71463;BMP180;59266;52.608;13.260;2023-06-10T12:15:50;101402.00;;;26.40
71463;BMP180;59266;52.608;13.260;2023-06-10T12:18:18;101403.00;;;26.80
71463;BMP180;59266;52.608;13.260;2023-06-10T12:20:51;101417.00;;;27.10
71463;BMP180;59266;52.608;13.260;2023-06-10T12:23:18;101421.00;;;27.00
71463;BMP180;59266;52.608;13.260;2023-06-10T12:25:54;101427.00;;;27.00
71463;BMP180;59266;52.608;13.260;2023-06-10T12:28:22;101429.00;;;26.90
71463;BMP180;59266;52.608;13.260;2023-06-10T12:30:51;101430.00;;;27.00
71463;BMP180;59266;52.608;13.260;2023-06-10T12:33:18;101424.00;;;26.80
71463;BMP180;59266;52.608;13.260;2023-06-10T12:35:48;101422.00;;;27.10
71463;BMP180;59266;52.608;13.260;2023-06-10T12:38:21;101417.00;;;26.60
71463;BMP180;59266;52.608;13.260;2023-06-10T12:40:48;101406.00;;;26.70
71463;BMP180;59266;52.608;13.260;2023-06-10T12:43:25;101385.00;;;27.50
71463;BMP180;59266;52.608;13.260;2023-06-10T12:45:52;101381.00;;;28.20
71463;BMP180;59266;52.608;13.260;2023-06-10T12:48:22;101379.00;;;28.80
71463;BMP180;59266;52.608;13.260;2023-06-10T12:50:57;101377.00;;;29.40
71463;BMP180;59266;52.608;13.260;2023-06-10T12:53:25;101369.00;;;29.40
71463;BMP180;59266;52.608;13.260;2023-06-10T12:56:01;101369.00;;;29.80
71463;BMP180;59266;52.608;13.260;2023-06-10T12:58:29;101365.00;;;30.50
71463;BMP180;59266;52.608;13.260;2023-06-10T13:00:56;101363.00;;;30.60
71463;BMP180;59266;52.608;13.260;2023-06-10T13:03:25;101358.00;;;31.20
71463;BMP180;59266;52.608;13.260;2023-06-10T13:05:52;101364.00;;;31.20
71463;BMP180;59266;52.608;13.260;2023-06-10T13:08:21;101352.00;;;31.20
71463;BMP180;59266;52.608;13.260;2023-06-10T13:10:48;101343.00;;;31.00
71463;BMP180;59266;52.608;13.260;2023-06-10T13:13:15;101355.00;;;31.50
71463;BMP180;59266;52.608;13.260;2023-06-10T13:15:43;101351.00;;;31.40
71463;BMP180;59266;52.608;13.260;2023-06-10T13:18:09;101357.00;;;31.30
71463;BMP180;59266;52.608;13.260;2023-06-10T13:20:36;101346.00;;;31.00
71463;BMP180;59266;52.608;13.260;2023-06-10T13:23:04;101362.00;;;31.20
71463;BMP180;59266;52.608;13.260;2023-06-10T13:25:31;101349.00;;;30.50
71463;BMP180;59266;52.608;13.260;2023-06-10T13:28:00;101342.00;;;30.70
71463;BMP180;59266;52.608;13.260;2023-06-10T13:30:26;101342.00;;;31.20
71463;BMP180;59266;52.608;13.260;2023-06-10T13:32:56;101342.00;;;31.70
71463;BMP180;59266;52.608;13.260;2023-06-10T13:35:23;101338.00;;;31.50
71463;BMP180;59266;52.608;13.260;2023-06-10T13:37:52;101336.00;;;31.50
71463;BMP180;59266;52.608;13.260;2023-06-10T13:40:19;101336.00;;;31.70
71463;BMP180;59266;52.608;13.260;2023-06-10T13:42:46;101339.00;;;31.70
71463;BMP180;59266;52.608;13.260;2023-06-10T13:45:17;101327.00;;;31.50
71463;BMP180;59266;52.608;13.260;2023-06-10T13:47:44;101333.00;;;31.80
71463;BMP180;59266;52.608;13.260;2023-06-10T13:50:16;101322.00;;;32.10
71463;BMP180;59266;52.608;13.260;2023-06-10T13:52:43;101315.00;;;32.20
71463;BMP180;59266;52.608;13.260;2023-06-10T13:55:13;101321.00;;;31.90
71463;BMP180;59266;52.608;13.260;2023-06-10T13:57:44;101323.00;;;31.70
71463;BMP180;59266;52.608;13.260;2023-06-10T14:00:11;101312.00;;;32.40
71463;BMP180;59266;52.608;13.260;2023-06-10T14:02:38;101314.00;;;32.20
71463;BMP180;59266;52.608;13.260;2023-06-10T14:05:06;101318.00;;;33.00
71463;BMP180;59266;52.608;13.260;2023-06-10T14:07:35;101318.00;;;32.80
71463;BMP180;59266;52.608;13.260;2023-06-10T14:10:04;101318.00;;;33.40